This is the latest recevied weather packets stored in our database for station/object KF7IOR. If no packets are shown the sender has not sent any weather packets the latest 10 day(s).
| Time | Temp. | Humidity | Pressure | Rain* | Wind** | Luminosity | Snow |
|---|---|---|---|---|---|---|---|
| 1777838734 | 28.33° C | 39% | 1009.6 hPa | 0 mm | - | 796 W/m² | - |
| 1777838447 | 28.89° C | 40% | 1009.6 hPa | 0 mm | - | 796 W/m² | - |
| 1777836335 | 27.78° C | 45% | 1010.1 hPa | 0 mm | - | 780 W/m² | - |
| 1777835435 | 25.56° C | 46% | 1010.2 hPa | 0 mm | - | 768 W/m² | - |
| 1777828834 | 21.11° C | 62% | 1011.3 hPa | 0 mm | - | 591 W/m² | - |
| 1777825235 | 18.33° C | 69% | 1011.6 hPa | 0 mm | - | 446 W/m² | - |
| 1777824634 | 18.33° C | 69% | 1011.8 hPa | 0 mm | - | 410 W/m² | - |
| 1777823734 | 17.78° C | 72% | 1011.8 hPa | 0 mm | - | 316 W/m² | - |
| 1777823435 | 17.78° C | 72% | 1011.9 hPa | 0 mm | - | 295 W/m² | - |
| 1777822246 | 16.67° C | 75% | 1011.8 hPa | 0 mm | - | 244 W/m² | - |
| 1777820734 | 15.56° C | 81% | 1011.9 hPa | 0 mm | - | 192 W/m² | - |
| 1777820134 | 15° C | 87% | 1011.9 hPa | 0 mm | - | 188 W/m² | - |
| 1777819835 | 14.44° C | 87% | 1011.9 hPa | 0 mm | - | 155 W/m² | - |
| 1777818334 | 12.78° C | 91% | 1011.8 hPa | 0 mm | - | 146 W/m² | - |
| 1777816534 | 11.11° C | 92% | 1011.7 hPa | 0 mm | - | 37 W/m² | - |
| 1777812936 | 10° C | 91% | 1011.5 hPa | 0 mm | - | 0 W/m² | - |
| 1777811734 | 10.56° C | 91% | 1011.5 hPa | 0 mm | - | 0 W/m² | - |
| 1777810834 | 10.56° C | 91% | 1011.5 hPa | 0 mm | - | 0 W/m² | - |
| 1777809336 | 10.56° C | 91% | 1011.6 hPa | 0 mm | - | 0 W/m² | - |
| 1777808745 | 10.56° C | 90% | 1011.6 hPa | 0 mm | - | 0 W/m² | - |
| 1777806944 | 11.11° C | 90% | 1011.6 hPa | 0 mm | - | 0 W/m² | - |
| 1777806635 | 11.11° C | 90% | 1011.8 hPa | 0 mm | - | 0 W/m² | - |
| 1777806040 | 11.11° C | 90% | 1011.8 hPa | 0 mm | - | 0 W/m² | - |
| 1777805444 | 11.11° C | 90% | 1011.7 hPa | 0 mm | - | 0 W/m² | - |
| 1777803636 | 11.67° C | 90% | 1011.8 hPa | 0 mm | - | 0 W/m² | - |
* Rain latest hour (hover to see other rain measurements)
** Current wind speed in m/s (hover to see current wind gust speed)